ORANGE1 EFOU-EFRO

Flight info

Callsign ORANGE1
Flight time 0h 22m
Altitude 16000
Route UPEDU DCT RENVI
Aircraft F35/M-SDE3RV/LB1

Departure

Time 2026-04-26 10:31
Airport Oulu Airport (EFOU)

Arrival

Time 2026-04-26 10:53
Airport Rovaniemi Airport (EFRO)
Time Latitude Longitude Altitude Speed Heading
2026-04-26 10:28 64.93145 25.33641 52 ft 0 kts 280°
2026-04-26 10:28 64.93223 25.33683 53 ft 27 kts 43°
2026-04-26 10:28 64.93374 25.33924 54 ft 25 kts 33°
2026-04-26 10:29 64.93516 25.34161 50 ft 24 kts 73°
2026-04-26 10:29 64.93443 25.34494 48 ft 24 kts 115°
2026-04-26 10:29 64.93363 25.34853 50 ft 26 kts 121°
2026-04-26 10:29 64.93269 25.35221 49 ft 27 kts 119°
2026-04-26 10:30 64.93170 25.35598 48 ft 28 kts 123°
2026-04-26 10:30 64.93069 25.36000 47 ft 28 kts 128°
2026-04-26 10:30 64.92978 25.35867 47 ft 32 kts 243°
2026-04-26 10:30 64.93135 25.35006 51 ft 156 kts 301°
2026-04-26 10:31 64.94073 25.34251 839 ft 221 kts 83°
2026-04-26 10:31 64.94236 25.37391 4728 ft 124 kts 81°
2026-04-26 10:31 64.94260 25.40064 10784 ft 216 kts 84°
2026-04-26 10:31 64.94392 25.46014 12941 ft 473 kts 84°
2026-04-26 10:32 64.95015 25.52989 16458 ft 373 kts 39°
2026-04-26 10:32 64.97200 25.54295 19890 ft 324 kts 352°
2026-04-26 10:32 64.99918 25.53411 22313 ft 461 kts 350°
2026-04-26 10:32 65.03142 25.52994 23466 ft 468 kts 359°
2026-04-26 10:33 65.06482 25.53282 23234 ft 469 kts
2026-04-26 10:33 65.09693 25.53800 22368 ft 465 kts
2026-04-26 10:33 65.13289 25.53916 21549 ft 548 kts 356°
2026-04-26 10:33 65.17086 25.53714 20786 ft 548 kts 359°
2026-04-26 10:34 65.21012 25.53817 20310 ft 549 kts 358°
2026-04-26 10:34 65.24830 25.53716 20032 ft 549 kts 358°
2026-04-26 10:34 65.28657 25.53715 19967 ft 550 kts 359°
2026-04-26 10:34 65.32487 25.53699 20101 ft 549 kts 358°
2026-04-26 10:35 65.36257 25.53651 20433 ft 548 kts 358°
2026-04-26 10:35 65.40023 25.53646 20458 ft 525 kts 359°
2026-04-26 10:35 65.43705 25.53642 20522 ft 528 kts 359°
2026-04-26 10:35 65.47393 25.53631 20556 ft 530 kts 359°
2026-04-26 10:36 65.51077 25.53640 20291 ft 528 kts 359°
2026-04-26 10:36 65.54758 25.53650 20031 ft 528 kts 359°
2026-04-26 10:36 65.58423 25.53659 19793 ft 528 kts 359°
2026-04-26 10:36 65.62114 25.53737 19507 ft 538 kts 359°
2026-04-26 10:37 65.66097 25.53814 19091 ft 578 kts 360°
2026-04-26 10:37 65.69753 25.53937 19008 ft 478 kts
2026-04-26 10:37 65.73091 25.54078 19030 ft 532 kts
2026-04-26 10:37 65.76839 25.54225 19046 ft 504 kts
2026-04-26 10:38 65.80088 25.54362 18719 ft 440 kts
2026-04-26 10:38 65.83054 25.54891 17308 ft 415 kts
2026-04-26 10:38 65.85880 25.55292 15891 ft 402 kts
2026-04-26 10:38 65.88641 25.55533 12817 ft 404 kts
2026-04-26 10:39 65.91507 25.55657 10033 ft 409 kts
2026-04-26 10:39 65.94087 25.55657 8356 ft 287 kts 360°
2026-04-26 10:39 65.95677 25.55511 7391 ft 204 kts 357°
2026-04-26 10:39 65.97476 25.55219 6433 ft 281 kts 356°
2026-04-26 10:40 65.99420 25.54982 5401 ft 280 kts 359°
2026-04-26 10:40 66.01334 25.55094 4413 ft 278 kts
2026-04-26 10:40 66.03234 25.55394 3527 ft 239 kts
2026-04-26 10:40 66.04916 25.55421 2871 ft 255 kts 359°
2026-04-26 10:41 66.06636 25.55360 2573 ft 243 kts
2026-04-26 10:41 66.08325 25.55394 2450 ft 239 kts
2026-04-26 10:41 66.09997 25.55456 2398 ft 241 kts
2026-04-26 10:41 66.11653 25.55477 2402 ft 239 kts
2026-04-26 10:42 66.13308 25.55497 2401 ft 237 kts
2026-04-26 10:42 66.14926 25.55518 2399 ft 219 kts
2026-04-26 10:42 66.16407 25.55539 2382 ft 207 kts
2026-04-26 10:42 66.17766 25.55555 2353 ft 192 kts
2026-04-26 10:43 66.19086 25.55580 2333 ft 187 kts
2026-04-26 10:43 66.20401 25.55609 2406 ft 181 kts
2026-04-26 10:43 66.21630 25.55622 2404 ft 179 kts
2026-04-26 10:43 66.22869 25.55636 2383 ft 180 kts
2026-04-26 10:44 66.24102 25.55653 2369 ft 177 kts
2026-04-26 10:44 66.25325 25.55675 2377 ft 178 kts
2026-04-26 10:44 66.26567 25.55704 2373 ft 177 kts
2026-04-26 10:44 66.27731 25.55717 2380 ft 167 kts
2026-04-26 10:45 66.28879 25.55730 2352 ft 166 kts
2026-04-26 10:45 66.30023 25.55748 2370 ft 165 kts
2026-04-26 10:45 66.31170 25.55763 2382 ft 163 kts
2026-04-26 10:45 66.32310 25.55781 2375 ft 161 kts
2026-04-26 10:46 66.33434 25.55802 2395 ft 163 kts
2026-04-26 10:46 66.34563 25.55830 2393 ft 155 kts
2026-04-26 10:46 66.35547 25.55841 2339 ft 141 kts
2026-04-26 10:46 66.36510 25.55849 2308 ft 138 kts
2026-04-26 10:47 66.37466 25.55862 2352 ft 137 kts
2026-04-26 10:47 66.38411 25.55879 2342 ft 137 kts
2026-04-26 10:47 66.39368 25.55877 2397 ft 139 kts 359°
2026-04-26 10:47 66.40319 25.55785 2395 ft 136 kts 359°
2026-04-26 10:48 66.41269 25.55804 2361 ft 137 kts
2026-04-26 10:48 66.42176 25.56473 2341 ft 138 kts 23°
2026-04-26 10:48 66.43017 25.57610 2321 ft 138 kts 28°
2026-04-26 10:48 66.43815 25.58999 2301 ft 139 kts 35°
2026-04-26 10:49 66.44558 25.60530 2297 ft 139 kts 36°
2026-04-26 10:49 66.45317 25.62071 2348 ft 140 kts 34°
2026-04-26 10:49 66.46084 25.63548 2333 ft 139 kts 33°
2026-04-26 10:49 66.46893 25.65079 2356 ft 178 kts 33°
2026-04-26 10:50 66.47850 25.66898 2378 ft 171 kts 34°
2026-04-26 10:50 66.48461 25.68090 2386 ft 166 kts 35°
2026-04-26 10:50 66.49674 25.70475 2355 ft 164 kts 34°
2026-04-26 10:50 66.50586 25.72244 2297 ft 166 kts 34°
2026-04-26 10:51 66.51411 25.73863 2056 ft 130 kts 33°
2026-04-26 10:51 66.52908 25.76420 1331 ft 133 kts 32°
2026-04-26 10:51 66.53643 25.77766 978 ft 129 kts 32°
2026-04-26 10:52 66.54358 25.79103 900 ft 128 kts 32°
2026-04-26 10:52 66.55094 25.80412 740 ft 129 kts 32°
2026-04-26 10:52 66.55784 25.81685 640 ft 102 kts 40°
2026-04-26 10:52 66.56261 25.82559 636 ft 71 kts 36°
2026-04-26 10:53 66.56596 25.83191 634 ft 48 kts 36°
2026-04-26 10:53 66.56745 25.83358 639 ft 18 kts 354°
2026-04-26 10:53 66.56859 25.83318 643 ft 12 kts 352°
2026-04-26 10:54 66.56882 25.83309 644 ft 9 kts 352°
2026-04-26 10:54 66.56959 25.83285 648 ft 10 kts 352°
2026-04-26 10:54 66.57005 25.83278 651 ft 0 kts 338°
2026-04-26 10:54 66.57006 25.83262 652 ft 4 kts 277°
2026-04-26 10:55 66.57003 25.83207 653 ft 0 kts 262°